sensor_id;sensor_type;location;lat;lon;timestamp;temperature;humidity
44705;DHT22;30431;48.520;9.046;2023-07-24T00:02:03;17.20;92.40
44705;DHT22;30431;48.520;9.046;2023-07-24T00:04:30;17.10;93.00
44705;DHT22;30431;48.520;9.046;2023-07-24T00:06:58;17.00;93.50
44705;DHT22;30431;48.520;9.046;2023-07-24T00:09:24;17.00;93.60
44705;DHT22;30431;48.520;9.046;2023-07-24T00:11:51;16.90;93.80
44705;DHT22;30431;48.520;9.046;2023-07-24T00:14:19;16.80;94.00
44705;DHT22;30431;48.520;9.046;2023-07-24T00:16:48;16.70;94.30
44705;DHT22;30431;48.520;9.046;2023-07-24T00:19:17;16.70;94.10
44705;DHT22;30431;48.520;9.046;2023-07-24T00:21:45;16.60;94.70
44705;DHT22;30431;48.520;9.046;2023-07-24T00:24:12;16.60;95.20
44705;DHT22;30431;48.520;9.046;2023-07-24T00:26:39;16.60;95.70
44705;DHT22;30431;48.520;9.046;2023-07-24T00:29:06;16.70;96.20
44705;DHT22;30431;48.520;9.046;2023-07-24T00:31:44;16.70;96.60
44705;DHT22;30431;48.520;9.046;2023-07-24T00:34:13;16.80;96.90
44705;DHT22;30431;48.520;9.046;2023-07-24T00:36:40;16.80;96.90
44705;DHT22;30431;48.520;9.046;2023-07-24T00:39:07;16.90;96.50
44705;DHT22;30431;48.520;9.046;2023-07-24T00:41:34;17.00;96.10
44705;DHT22;30431;48.520;9.046;2023-07-24T00:44:01;17.20;95.40
44705;DHT22;30431;48.520;9.046;2023-07-24T00:46:31;17.20;94.50
44705;DHT22;30431;48.520;9.046;2023-07-24T00:49:00;17.30;94.00
44705;DHT22;30431;48.520;9.046;2023-07-24T00:51:29;17.40;94.10
44705;DHT22;30431;48.520;9.046;2023-07-24T00:53:57;17.40;94.00
44705;DHT22;30431;48.520;9.046;2023-07-24T00:56:26;17.30;94.00
44705;DHT22;30431;48.520;9.046;2023-07-24T00:58:54;17.30;94.10
44705;DHT22;30431;48.520;9.046;2023-07-24T01:01:25;17.20;94.10
44705;DHT22;30431;48.520;9.046;2023-07-24T01:03:52;17.20;93.70
44705;DHT22;30431;48.520;9.046;2023-07-24T01:06:19;17.10;93.60
44705;DHT22;30431;48.520;9.046;2023-07-24T01:08:48;17.10;93.90
44705;DHT22;30431;48.520;9.046;2023-07-24T01:11:17;17.00;93.80
44705;DHT22;30431;48.520;9.046;2023-07-24T01:13:51;17.00;94.10
44705;DHT22;30431;48.520;9.046;2023-07-24T01:16:26;16.80;94.60
44705;DHT22;30431;48.520;9.046;2023-07-24T01:18:57;16.80;94.90
44705;DHT22;30431;48.520;9.046;2023-07-24T01:21:33;16.70;95.10
44705;DHT22;30431;48.520;9.046;2023-07-24T01:26:34;16.60;96.00
44705;DHT22;30431;48.520;9.046;2023-07-24T01:29:00;16.50;95.90
44705;DHT22;30431;48.520;9.046;2023-07-24T01:31:27;16.50;95.90
44705;DHT22;30431;48.520;9.046;2023-07-24T01:33:54;16.60;96.30
44705;DHT22;30431;48.520;9.046;2023-07-24T01:36:21;16.60;96.20
44705;DHT22;30431;48.520;9.046;2023-07-24T01:38:50;16.70;95.90
44705;DHT22;30431;48.520;9.046;2023-07-24T01:41:17;16.90;95.50
44705;DHT22;30431;48.520;9.046;2023-07-24T01:43:47;16.90;95.30
44705;DHT22;30431;48.520;9.046;2023-07-24T01:46:15;17.00;95.30
44705;DHT22;30431;48.520;9.046;2023-07-24T01:48:42;17.00;95.50
44705;DHT22;30431;48.520;9.046;2023-07-24T01:51:14;17.00;95.30
44705;DHT22;30431;48.520;9.046;2023-07-24T01:53:43;17.10;95.20
44705;DHT22;30431;48.520;9.046;2023-07-24T01:56:10;17.10;95.00
44705;DHT22;30431;48.520;9.046;2023-07-24T01:58:37;17.00;94.60
44705;DHT22;30431;48.520;9.046;2023-07-24T02:01:04;17.00;95.10
44705;DHT22;30431;48.520;9.046;2023-07-24T02:03:33;16.90;95.30
44705;DHT22;30431;48.520;9.046;2023-07-24T02:06:00;16.90;96.10
44705;DHT22;30431;48.520;9.046;2023-07-24T02:08:27;16.70;96.30
44705;DHT22;30431;48.520;9.046;2023-07-24T02:10:57;16.70;96.90
44705;DHT22;30431;48.520;9.046;2023-07-24T02:13:24;16.60;97.60
44705;DHT22;30431;48.520;9.046;2023-07-24T02:15:52;16.60;97.80
44705;DHT22;30431;48.520;9.046;2023-07-24T02:18:20;16.50;97.60
44705;DHT22;30431;48.520;9.046;2023-07-24T02:20:50;16.50;98.20
44705;DHT22;30431;48.520;9.046;2023-07-24T02:23:17;16.40;98.80
44705;DHT22;30431;48.520;9.046;2023-07-24T02:25:44;16.30;99.40
44705;DHT22;30431;48.520;9.046;2023-07-24T02:28:14;16.20;99.90
44705;DHT22;30431;48.520;9.046;2023-07-24T02:30:40;16.20;99.90
44705;DHT22;30431;48.520;9.046;2023-07-24T02:33:07;16.10;99.90
44705;DHT22;30431;48.520;9.046;2023-07-24T02:35:38;16.10;99.90
44705;DHT22;30431;48.520;9.046;2023-07-24T02:38:06;16.00;99.90
44705;DHT22;30431;48.520;9.046;2023-07-24T02:40:33;16.00;99.90
44705;DHT22;30431;48.520;9.046;2023-07-24T02:43:02;15.90;99.90
44705;DHT22;30431;48.520;9.046;2023-07-24T02:45:29;15.90;99.90
44705;DHT22;30431;48.520;9.046;2023-07-24T02:47:59;15.80;99.90
44705;DHT22;30431;48.520;9.046;2023-07-24T02:50:29;15.70;99.90
44705;DHT22;30431;48.520;9.046;2023-07-24T02:52:58;15.70;99.90
44705;DHT22;30431;48.520;9.046;2023-07-24T02:55:25;15.60;99.90
44705;DHT22;30431;48.520;9.046;2023-07-24T02:57:52;15.60;99.90
44705;DHT22;30431;48.520;9.046;2023-07-24T03:00:19;15.60;99.90
44705;DHT22;30431;48.520;9.046;2023-07-24T03:02:52;15.50;99.90
44705;DHT22;30431;48.520;9.046;2023-07-24T03:05:19;15.50;99.90
44705;DHT22;30431;48.520;9.046;2023-07-24T03:07:46;15.40;99.90
44705;DHT22;30431;48.520;9.046;2023-07-24T03:10:13;15.40;99.90
44705;DHT22;30431;48.520;9.046;2023-07-24T03:12:39;15.40;99.90
44705;DHT22;30431;48.520;9.046;2023-07-24T03:15:07;15.30;99.90
44705;DHT22;30431;48.520;9.046;2023-07-24T03:17:34;15.20;99.90
44705;DHT22;30431;48.520;9.046;2023-07-24T03:20:13;15.10;99.90
44705;DHT22;30431;48.520;9.046;2023-07-24T03:22:41;15.10;99.90
44705;DHT22;30431;48.520;9.046;2023-07-24T03:25:10;15.10;99.90
44705;DHT22;30431;48.520;9.046;2023-07-24T03:27:39;15.10;99.90
44705;DHT22;30431;48.520;9.046;2023-07-24T03:30:06;15.10;99.90
44705;DHT22;30431;48.520;9.046;2023-07-24T03:32:35;15.00;99.90
44705;DHT22;30431;48.520;9.046;2023-07-24T03:35:03;15.00;99.90
44705;DHT22;30431;48.520;9.046;2023-07-24T03:37:33;14.90;99.90
44705;DHT22;30431;48.520;9.046;2023-07-24T03:40:06;14.90;99.90
44705;DHT22;30431;48.520;9.046;2023-07-24T03:42:33;14.90;99.90
44705;DHT22;30431;48.520;9.046;2023-07-24T03:45:02;15.00;99.90
44705;DHT22;30431;48.520;9.046;2023-07-24T03:47:29;15.00;99.90
44705;DHT22;30431;48.520;9.046;2023-07-24T03:49:56;15.20;99.90
44705;DHT22;30431;48.520;9.046;2023-07-24T03:52:23;15.30;99.90
44705;DHT22;30431;48.520;9.046;2023-07-24T03:54:53;15.40;99.90
44705;DHT22;30431;48.520;9.046;2023-07-24T03:57:20;15.50;99.90
44705;DHT22;30431;48.520;9.046;2023-07-24T03:59:47;15.60;99.90
44705;DHT22;30431;48.520;9.046;2023-07-24T04:02:14;15.80;99.90
44705;DHT22;30431;48.520;9.046;2023-07-24T04:04:47;15.80;99.90
44705;DHT22;30431;48.520;9.046;2023-07-24T04:07:16;15.80;99.90
44705;DHT22;30431;48.520;9.046;2023-07-24T04:09:43;15.80;99.90
44705;DHT22;30431;48.520;9.046;2023-07-24T04:12:10;15.70;99.90
44705;DHT22;30431;48.520;9.046;2023-07-24T04:14:37;15.60;99.90
44705;DHT22;30431;48.520;9.046;2023-07-24T04:17:04;15.60;99.90
44705;DHT22;30431;48.520;9.046;2023-07-24T04:19:32;15.60;99.90
44705;DHT22;30431;48.520;9.046;2023-07-24T04:22:01;15.60;99.90
44705;DHT22;30431;48.520;9.046;2023-07-24T04:24:28;15.60;99.90
44705;DHT22;30431;48.520;9.046;2023-07-24T04:26:55;15.70;99.90
44705;DHT22;30431;48.520;9.046;2023-07-24T04:29:24;15.80;99.90
44705;DHT22;30431;48.520;9.046;2023-07-24T04:31:53;16.00;99.90
44705;DHT22;30431;48.520;9.046;2023-07-24T04:34:20;15.90;99.90
44705;DHT22;30431;48.520;9.046;2023-07-24T04:36:47;16.00;99.90
44705;DHT22;30431;48.520;9.046;2023-07-24T04:39:13;16.10;99.90
44705;DHT22;30431;48.520;9.046;2023-07-24T04:41:40;16.20;99.90
44705;DHT22;30431;48.520;9.046;2023-07-24T04:44:07;16.30;99.90
44705;DHT22;30431;48.520;9.046;2023-07-24T04:46:34;16.40;99.90
44705;DHT22;30431;48.520;9.046;2023-07-24T04:49:03;16.40;99.90
44705;DHT22;30431;48.520;9.046;2023-07-24T04:51:30;16.50;99.90
44705;DHT22;30431;48.520;9.046;2023-07-24T04:54:01;16.60;99.90
44705;DHT22;30431;48.520;9.046;2023-07-24T04:56:28;16.60;99.90
44705;DHT22;30431;48.520;9.046;2023-07-24T04:58:55;16.60;99.90
44705;DHT22;30431;48.520;9.046;2023-07-24T05:01:22;16.60;99.90
44705;DHT22;30431;48.520;9.046;2023-07-24T05:03:51;16.70;99.90
44705;DHT22;30431;48.520;9.046;2023-07-24T05:06:23;16.80;99.90
44705;DHT22;30431;48.520;9.046;2023-07-24T05:08:50;16.70;99.90
44705;DHT22;30431;48.520;9.046;2023-07-24T05:11:21;16.90;99.90
44705;DHT22;30431;48.520;9.046;2023-07-24T05:13:48;17.00;99.90
44705;DHT22;30431;48.520;9.046;2023-07-24T05:16:15;17.00;99.90
44705;DHT22;30431;48.520;9.046;2023-07-24T05:18:42;17.00;99.90
44705;DHT22;30431;48.520;9.046;2023-07-24T05:21:09;17.20;99.90
44705;DHT22;30431;48.520;9.046;2023-07-24T05:23:36;17.50;99.50
44705;DHT22;30431;48.520;9.046;2023-07-24T05:26:03;17.60;98.80
44705;DHT22;30431;48.520;9.046;2023-07-24T05:28:32;17.70;98.30
44705;DHT22;30431;48.520;9.046;2023-07-24T05:31:02;17.80;97.70
44705;DHT22;30431;48.520;9.046;2023-07-24T05:33:29;17.80;97.30
44705;DHT22;30431;48.520;9.046;2023-07-24T05:38:37;17.80;96.40
44705;DHT22;30431;48.520;9.046;2023-07-24T05:41:04;17.60;97.40
44705;DHT22;30431;48.520;9.046;2023-07-24T05:43:35;17.40;97.90
44705;DHT22;30431;48.520;9.046;2023-07-24T05:46:02;17.20;98.60
44705;DHT22;30431;48.520;9.046;2023-07-24T05:48:31;17.30;98.90
44705;DHT22;30431;48.520;9.046;2023-07-24T05:51:00;17.20;98.80
44705;DHT22;30431;48.520;9.046;2023-07-24T05:53:28;17.00;99.90
44705;DHT22;30431;48.520;9.046;2023-07-24T05:55:59;17.10;99.90
44705;DHT22;30431;48.520;9.046;2023-07-24T05:58:30;17.00;99.90
44705;DHT22;30431;48.520;9.046;2023-07-24T06:00:57;17.20;99.90
44705;DHT22;30431;48.520;9.046;2023-07-24T06:03:25;17.30;99.90
44705;DHT22;30431;48.520;9.046;2023-07-24T06:05:55;17.30;99.80
44705;DHT22;30431;48.520;9.046;2023-07-24T06:08:25;17.30;99.90
44705;DHT22;30431;48.520;9.046;2023-07-24T06:10:52;17.40;99.90
44705;DHT22;30431;48.520;9.046;2023-07-24T06:13:19;17.40;99.90
44705;DHT22;30431;48.520;9.046;2023-07-24T06:15:47;17.60;99.50
44705;DHT22;30431;48.520;9.046;2023-07-24T06:18:18;17.60;99.00
44705;DHT22;30431;48.520;9.046;2023-07-24T06:20:52;17.70;98.90
44705;DHT22;30431;48.520;9.046;2023-07-24T06:23:19;17.90;98.30
44705;DHT22;30431;48.520;9.046;2023-07-24T06:25:46;17.90;98.10
44705;DHT22;30431;48.520;9.046;2023-07-24T06:28:13;17.90;97.90
44705;DHT22;30431;48.520;9.046;2023-07-24T06:30:40;18.00;97.70
44705;DHT22;30431;48.520;9.046;2023-07-24T06:33:10;18.00;97.60
44705;DHT22;30431;48.520;9.046;2023-07-24T06:35:37;18.10;97.50
44705;DHT22;30431;48.520;9.046;2023-07-24T06:38:06;18.20;97.10
44705;DHT22;30431;48.520;9.046;2023-07-24T06:40:37;18.20;97.40
44705;DHT22;30431;48.520;9.046;2023-07-24T06:43:04;18.40;97.00
44705;DHT22;30431;48.520;9.046;2023-07-24T06:45:31;18.60;96.30
44705;DHT22;30431;48.520;9.046;2023-07-24T06:48:00;18.80;95.50
44705;DHT22;30431;48.520;9.046;2023-07-24T06:50:27;18.90;95.10
44705;DHT22;30431;48.520;9.046;2023-07-24T06:52:54;19.20;94.40
44705;DHT22;30431;48.520;9.046;2023-07-24T06:55:22;19.60;93.50
44705;DHT22;30431;48.520;9.046;2023-07-24T06:57:49;20.00;92.70
44705;DHT22;30431;48.520;9.046;2023-07-24T07:00:18;20.20;92.20
44705;DHT22;30431;48.520;9.046;2023-07-24T07:02:46;20.30;91.50
44705;DHT22;30431;48.520;9.046;2023-07-24T07:05:15;20.60;91.30
44705;DHT22;30431;48.520;9.046;2023-07-24T07:07:45;20.70;90.20
44705;DHT22;30431;48.520;9.046;2023-07-24T07:10:12;20.70;89.10
44705;DHT22;30431;48.520;9.046;2023-07-24T07:12:39;20.60;88.80
44705;DHT22;30431;48.520;9.046;2023-07-24T07:15:09;20.60;89.40
44705;DHT22;30431;48.520;9.046;2023-07-24T07:17:41;20.60;88.30
44705;DHT22;30431;48.520;9.046;2023-07-24T07:20:08;20.80;87.80
44705;DHT22;30431;48.520;9.046;2023-07-24T07:22:36;21.10;86.20
44705;DHT22;30431;48.520;9.046;2023-07-24T07:25:03;21.60;85.50
44705;DHT22;30431;48.520;9.046;2023-07-24T07:27:31;22.00;83.10
44705;DHT22;30431;48.520;9.046;2023-07-24T07:29:59;22.60;82.60
44705;DHT22;30431;48.520;9.046;2023-07-24T07:32:31;22.90;80.60
44705;DHT22;30431;48.520;9.046;2023-07-24T07:34:58;23.10;79.00
44705;DHT22;30431;48.520;9.046;2023-07-24T07:37:28;22.90;78.80
44705;DHT22;30431;48.520;9.046;2023-07-24T07:39:55;22.70;78.80
44705;DHT22;30431;48.520;9.046;2023-07-24T07:42:25;22.40;79.80
44705;DHT22;30431;48.520;9.046;2023-07-24T07:44:54;22.40;80.30
44705;DHT22;30431;48.520;9.046;2023-07-24T07:47:21;22.40;80.50
44705;DHT22;30431;48.520;9.046;2023-07-24T07:49:49;22.20;81.60
44705;DHT22;30431;48.520;9.046;2023-07-24T07:52:21;22.00;82.40
44705;DHT22;30431;48.520;9.046;2023-07-24T07:54:49;21.90;82.80
44705;DHT22;30431;48.520;9.046;2023-07-24T07:57:16;21.80;84.20
44705;DHT22;30431;48.520;9.046;2023-07-24T07:59:43;21.50;85.50
44705;DHT22;30431;48.520;9.046;2023-07-24T08:02:12;21.30;86.70
44705;DHT22;30431;48.520;9.046;2023-07-24T08:04:40;21.10;88.30
44705;DHT22;30431;48.520;9.046;2023-07-24T08:07:07;20.90;90.30
44705;DHT22;30431;48.520;9.046;2023-07-24T08:09:34;20.80;91.20
44705;DHT22;30431;48.520;9.046;2023-07-24T08:12:05;20.70;92.30
44705;DHT22;30431;48.520;9.046;2023-07-24T08:14:34;20.60;92.80
44705;DHT22;30431;48.520;9.046;2023-07-24T08:17:01;20.50;93.40
44705;DHT22;30431;48.520;9.046;2023-07-24T08:19:29;20.60;93.50
44705;DHT22;30431;48.520;9.046;2023-07-24T08:21:57;20.60;93.50
44705;DHT22;30431;48.520;9.046;2023-07-24T08:24:24;20.50;93.70
44705;DHT22;30431;48.520;9.046;2023-07-24T08:26:56;20.50;94.30
44705;DHT22;30431;48.520;9.046;2023-07-24T08:29:23;20.50;94.10
44705;DHT22;30431;48.520;9.046;2023-07-24T08:31:53;20.60;93.80
44705;DHT22;30431;48.520;9.046;2023-07-24T08:34:20;20.70;93.80
44705;DHT22;30431;48.520;9.046;2023-07-24T08:36:47;20.80;93.70
44705;DHT22;30431;48.520;9.046;2023-07-24T08:39:15;20.90;93.60
44705;DHT22;30431;48.520;9.046;2023-07-24T08:41:47;21.10;93.00
44705;DHT22;30431;48.520;9.046;2023-07-24T08:44:17;21.30;92.90
44705;DHT22;30431;48.520;9.046;2023-07-24T08:46:47;21.70;92.20
44705;DHT22;30431;48.520;9.046;2023-07-24T08:49:16;21.90;92.00
44705;DHT22;30431;48.520;9.046;2023-07-24T08:51:46;22.20;91.90
44705;DHT22;30431;48.520;9.046;2023-07-24T08:54:14;22.30;91.30
44705;DHT22;30431;48.520;9.046;2023-07-24T08:56:47;22.50;90.40
44705;DHT22;30431;48.520;9.046;2023-07-24T08:59:16;22.80;90.00
44705;DHT22;30431;48.520;9.046;2023-07-24T09:01:45;23.00;88.90
44705;DHT22;30431;48.520;9.046;2023-07-24T09:04:12;23.50;88.30
44705;DHT22;30431;48.520;9.046;2023-07-24T09:06:39;23.50;85.50
44705;DHT22;30431;48.520;9.046;2023-07-24T09:09:16;23.70;84.40
44705;DHT22;30431;48.520;9.046;2023-07-24T09:11:53;24.00;83.30
44705;DHT22;30431;48.520;9.046;2023-07-24T09:14:25;24.20;83.40
44705;DHT22;30431;48.520;9.046;2023-07-24T09:17:09;24.30;82.60
44705;DHT22;30431;48.520;9.046;2023-07-24T09:19:39;24.10;82.70
44705;DHT22;30431;48.520;9.046;2023-07-24T09:22:13;23.70;84.40
44705;DHT22;30431;48.520;9.046;2023-07-24T09:24:55;23.50;85.20
44705;DHT22;30431;48.520;9.046;2023-07-24T09:27:27;23.20;86.00
44705;DHT22;30431;48.520;9.046;2023-07-24T09:29:57;23.00;87.40
44705;DHT22;30431;48.520;9.046;2023-07-24T09:32:27;22.80;89.30
44705;DHT22;30431;48.520;9.046;2023-07-24T09:34:55;22.80;89.20
44705;DHT22;30431;48.520;9.046;2023-07-24T09:37:35;22.60;90.20
44705;DHT22;30431;48.520;9.046;2023-07-24T09:40:05;22.40;90.70
44705;DHT22;30431;48.520;9.046;2023-07-24T09:42:34;22.40;90.50
44705;DHT22;30431;48.520;9.046;2023-07-24T09:45:10;22.40;92.00
44705;DHT22;30431;48.520;9.046;2023-07-24T09:47:38;22.40;92.10
44705;DHT22;30431;48.520;9.046;2023-07-24T09:50:09;22.40;92.20
44705;DHT22;30431;48.520;9.046;2023-07-24T09:52:39;22.10;92.40
44705;DHT22;30431;48.520;9.046;2023-07-24T09:55:11;22.00;93.50
44705;DHT22;30431;48.520;9.046;2023-07-24T09:57:44;21.80;94.20
44705;DHT22;30431;48.520;9.046;2023-07-24T10:00:15;21.60;94.40
44705;DHT22;30431;48.520;9.046;2023-07-24T10:02:46;21.50;95.20
44705;DHT22;30431;48.520;9.046;2023-07-24T10:05:14;21.30;96.10
44705;DHT22;30431;48.520;9.046;2023-07-24T10:07:48;21.20;97.00
44705;DHT22;30431;48.520;9.046;2023-07-24T10:10:17;21.10;98.90
44705;DHT22;30431;48.520;9.046;2023-07-24T10:12:52;21.00;99.90
44705;DHT22;30431;48.520;9.046;2023-07-24T10:15:20;20.90;99.90
44705;DHT22;30431;48.520;9.046;2023-07-24T10:17:47;20.90;99.90
44705;DHT22;30431;48.520;9.046;2023-07-24T10:20:16;20.80;99.90
44705;DHT22;30431;48.520;9.046;2023-07-24T10:22:44;20.80;99.90
44705;DHT22;30431;48.520;9.046;2023-07-24T10:25:12;20.70;99.90
44705;DHT22;30431;48.520;9.046;2023-07-24T10:27:45;20.60;99.90
44705;DHT22;30431;48.520;9.046;2023-07-24T10:30:16;20.50;99.90
44705;DHT22;30431;48.520;9.046;2023-07-24T10:33:17;20.40;99.90
44705;DHT22;30431;48.520;9.046;2023-07-24T10:35:49;20.40;99.90
44705;DHT22;30431;48.520;9.046;2023-07-24T10:38:19;20.30;99.90
44705;DHT22;30431;48.520;9.046;2023-07-24T10:40:48;20.30;99.90
44705;DHT22;30431;48.520;9.046;2023-07-24T10:43:26;20.30;99.90
44705;DHT22;30431;48.520;9.046;2023-07-24T10:45:54;20.40;99.90
44705;DHT22;30431;48.520;9.046;2023-07-24T10:48:24;20.40;99.90
44705;DHT22;30431;48.520;9.046;2023-07-24T10:50:52;20.60;99.90
44705;DHT22;30431;48.520;9.046;2023-07-24T10:53:22;20.70;99.90
44705;DHT22;30431;48.520;9.046;2023-07-24T10:55:50;20.60;99.90
44705;DHT22;30431;48.520;9.046;2023-07-24T10:58:18;20.50;99.90
44705;DHT22;30431;48.520;9.046;2023-07-24T11:00:45;20.50;99.90
44705;DHT22;30431;48.520;9.046;2023-07-24T11:03:14;20.50;99.90
44705;DHT22;30431;48.520;9.046;2023-07-24T11:05:43;20.60;99.90
44705;DHT22;30431;48.520;9.046;2023-07-24T11:08:11;20.60;99.90
44705;DHT22;30431;48.520;9.046;2023-07-24T11:10:58;20.50;99.90
44705;DHT22;30431;48.520;9.046;2023-07-24T11:13:29;20.30;99.90
44705;DHT22;30431;48.520;9.046;2023-07-24T11:15:56;20.30;99.90
44705;DHT22;30431;48.520;9.046;2023-07-24T11:18:25;20.20;99.90
44705;DHT22;30431;48.520;9.046;2023-07-24T11:21:15;20.30;99.90
44705;DHT22;30431;48.520;9.046;2023-07-24T11:23:53;20.50;99.90
44705;DHT22;30431;48.520;9.046;2023-07-24T11:26:21;20.80;99.90
44705;DHT22;30431;48.520;9.046;2023-07-24T11:28:51;21.40;99.90
44705;DHT22;30431;48.520;9.046;2023-07-24T11:31:18;22.00;99.90
44705;DHT22;30431;48.520;9.046;2023-07-24T11:33:52;22.90;99.90
44705;DHT22;30431;48.520;9.046;2023-07-24T11:36:22;23.80;96.40
44705;DHT22;30431;48.520;9.046;2023-07-24T11:38:50;24.30;96.00
44705;DHT22;30431;48.520;9.046;2023-07-24T11:41:16;24.80;93.40
44705;DHT22;30431;48.520;9.046;2023-07-24T11:43:49;25.10;92.10
44705;DHT22;30431;48.520;9.046;2023-07-24T11:46:28;25.50;91.00
44705;DHT22;30431;48.520;9.046;2023-07-24T11:48:56;25.60;90.20
44705;DHT22;30431;48.520;9.046;2023-07-24T11:51:28;25.80;90.50
44705;DHT22;30431;48.520;9.046;2023-07-24T11:54:07;25.80;89.10
44705;DHT22;30431;48.520;9.046;2023-07-24T11:56:34;26.00;90.20
44705;DHT22;30431;48.520;9.046;2023-07-24T11:59:13;26.00;84.60
44705;DHT22;30431;48.520;9.046;2023-07-24T12:01:41;25.90;85.00
44705;DHT22;30431;48.520;9.046;2023-07-24T12:04:08;26.00;86.50
44705;DHT22;30431;48.520;9.046;2023-07-24T12:06:35;25.60;85.60
44705;DHT22;30431;48.520;9.046;2023-07-24T12:09:13;25.50;87.50
44705;DHT22;30431;48.520;9.046;2023-07-24T12:11:41;25.70;88.30
44705;DHT22;30431;48.520;9.046;2023-07-24T12:14:11;25.90;86.50
44705;DHT22;30431;48.520;9.046;2023-07-24T12:16:40;25.90;86.40
44705;DHT22;30431;48.520;9.046;2023-07-24T12:19:07;26.10;85.30
44705;DHT22;30431;48.520;9.046;2023-07-24T12:21:34;26.30;82.90
44705;DHT22;30431;48.520;9.046;2023-07-24T12:24:01;26.30;77.20
44705;DHT22;30431;48.520;9.046;2023-07-24T12:26:28;26.30;77.50
44705;DHT22;30431;48.520;9.046;2023-07-24T12:28:55;26.30;77.80
44705;DHT22;30431;48.520;9.046;2023-07-24T12:31:31;26.40;78.30
44705;DHT22;30431;48.520;9.046;2023-07-24T12:34:01;26.60;77.80
44705;DHT22;30431;48.520;9.046;2023-07-24T12:36:33;26.50;75.80
44705;DHT22;30431;48.520;9.046;2023-07-24T12:39:00;26.00;75.80
44705;DHT22;30431;48.520;9.046;2023-07-24T12:41:29;25.80;76.60
44705;DHT22;30431;48.520;9.046;2023-07-24T12:43:59;25.90;75.00
44705;DHT22;30431;48.520;9.046;2023-07-24T12:46:27;25.50;75.90
44705;DHT22;30431;48.520;9.046;2023-07-24T12:48:58;25.20;77.70
44705;DHT22;30431;48.520;9.046;2023-07-24T12:51:27;25.10;76.30
44705;DHT22;30431;48.520;9.046;2023-07-24T12:53:55;25.20;76.20
44705;DHT22;30431;48.520;9.046;2023-07-24T12:56:44;25.70;75.30
44705;DHT22;30431;48.520;9.046;2023-07-24T12:59:14;26.30;74.00
44705;DHT22;30431;48.520;9.046;2023-07-24T13:01:41;26.60;72.40
44705;DHT22;30431;48.520;9.046;2023-07-24T13:04:08;27.00;71.00
44705;DHT22;30431;48.520;9.046;2023-07-24T13:06:36;26.80;71.10
44705;DHT22;30431;48.520;9.046;2023-07-24T13:09:08;26.90;71.10
44705;DHT22;30431;48.520;9.046;2023-07-24T13:11:37;26.90;71.30
44705;DHT22;30431;48.520;9.046;2023-07-24T13:14:04;26.70;72.50
44705;DHT22;30431;48.520;9.046;2023-07-24T13:16:34;26.70;71.30
44705;DHT22;30431;48.520;9.046;2023-07-24T13:19:01;26.50;71.30
44705;DHT22;30431;48.520;9.046;2023-07-24T13:21:28;26.30;71.50
44705;DHT22;30431;48.520;9.046;2023-07-24T13:23:55;26.30;72.00
44705;DHT22;30431;48.520;9.046;2023-07-24T13:26:22;26.20;72.10
44705;DHT22;30431;48.520;9.046;2023-07-24T13:28:49;26.00;73.60
44705;DHT22;30431;48.520;9.046;2023-07-24T13:31:18;25.70;73.70
44705;DHT22;30431;48.520;9.046;2023-07-24T13:33:46;25.70;74.70
44705;DHT22;30431;48.520;9.046;2023-07-24T13:36:13;25.80;74.90
44705;DHT22;30431;48.520;9.046;2023-07-24T13:38:41;25.70;75.40
44705;DHT22;30431;48.520;9.046;2023-07-24T13:41:08;25.70;74.60
44705;DHT22;30431;48.520;9.046;2023-07-24T13:43:35;25.60;74.60
44705;DHT22;30431;48.520;9.046;2023-07-24T13:46:04;25.20;75.70
44705;DHT22;30431;48.520;9.046;2023-07-24T13:48:35;24.80;76.80
44705;DHT22;30431;48.520;9.046;2023-07-24T13:51:06;24.70;77.60
44705;DHT22;30431;48.520;9.046;2023-07-24T13:53:36;24.60;78.40
44705;DHT22;30431;48.520;9.046;2023-07-24T13:56:03;24.50;80.60
44705;DHT22;30431;48.520;9.046;2023-07-24T13:58:33;24.70;82.20
44705;DHT22;30431;48.520;9.046;2023-07-24T14:01:00;24.50;82.20
44705;DHT22;30431;48.520;9.046;2023-07-24T14:03:27;24.70;81.90
44705;DHT22;30431;48.520;9.046;2023-07-24T14:05:56;24.60;80.60
44705;DHT22;30431;48.520;9.046;2023-07-24T14:08:24;24.40;82.90
44705;DHT22;30431;48.520;9.046;2023-07-24T14:10:51;24.20;84.40
44705;DHT22;30431;48.520;9.046;2023-07-24T14:13:18;24.20;83.40
44705;DHT22;30431;48.520;9.046;2023-07-24T14:15:46;24.00;82.70
44705;DHT22;30431;48.520;9.046;2023-07-24T14:18:12;23.60;83.70
44705;DHT22;30431;48.520;9.046;2023-07-24T14:20:40;23.40;82.80
44705;DHT22;30431;48.520;9.046;2023-07-24T14:23:07;23.30;81.40
44705;DHT22;30431;48.520;9.046;2023-07-24T14:25:37;23.50;81.00
44705;DHT22;30431;48.520;9.046;2023-07-24T14:28:06;23.50;80.10
44705;DHT22;30431;48.520;9.046;2023-07-24T14:30:33;23.80;79.60
44705;DHT22;30431;48.520;9.046;2023-07-24T14:33:02;23.80;79.50
44705;DHT22;30431;48.520;9.046;2023-07-24T14:35:29;23.80;80.10
44705;DHT22;30431;48.520;9.046;2023-07-24T14:37:56;23.80;80.00
44705;DHT22;30431;48.520;9.046;2023-07-24T14:40:26;23.90;80.60
44705;DHT22;30431;48.520;9.046;2023-07-24T14:42:53;24.10;81.40
44705;DHT22;30431;48.520;9.046;2023-07-24T14:45:22;23.70;81.30
44705;DHT22;30431;48.520;9.046;2023-07-24T14:47:49;23.30;83.00
44705;DHT22;30431;48.520;9.046;2023-07-24T14:50:16;23.40;84.40
44705;DHT22;30431;48.520;9.046;2023-07-24T14:52:46;23.50;82.60
44705;DHT22;30431;48.520;9.046;2023-07-24T14:55:15;23.80;81.80
44705;DHT22;30431;48.520;9.046;2023-07-24T14:57:50;23.30;82.70
44705;DHT22;30431;48.520;9.046;2023-07-24T15:00:17;23.10;83.30
44705;DHT22;30431;48.520;9.046;2023-07-24T15:02:45;22.80;84.50
44705;DHT22;30431;48.520;9.046;2023-07-24T15:05:12;22.80;85.20
44705;DHT22;30431;48.520;9.046;2023-07-24T15:07:38;22.80;85.50
44705;DHT22;30431;48.520;9.046;2023-07-24T15:10:08;23.10;84.80
44705;DHT22;30431;48.520;9.046;2023-07-24T15:12:35;23.80;82.80
44705;DHT22;30431;48.520;9.046;2023-07-24T15:15:02;23.90;81.70
44705;DHT22;30431;48.520;9.046;2023-07-24T15:17:32;23.90;80.90
44705;DHT22;30431;48.520;9.046;2023-07-24T15:19:59;24.10;81.20
44705;DHT22;30431;48.520;9.046;2023-07-24T15:22:26;24.10;80.80
44705;DHT22;30431;48.520;9.046;2023-07-24T15:24:55;24.20;79.90
44705;DHT22;30431;48.520;9.046;2023-07-24T15:27:23;24.00;80.10
44705;DHT22;30431;48.520;9.046;2023-07-24T15:33:20;24.80;77.50
44705;DHT22;30431;48.520;9.046;2023-07-24T15:35:48;24.70;76.30
44705;DHT22;30431;48.520;9.046;2023-07-24T15:38:15;24.30;78.10
44705;DHT22;30431;48.520;9.046;2023-07-24T15:40:45;24.20;77.70
44705;DHT22;30431;48.520;9.046;2023-07-24T15:43:12;24.10;78.70
44705;DHT22;30431;48.520;9.046;2023-07-24T15:45:39;24.00;79.10
44705;DHT22;30431;48.520;9.046;2023-07-24T15:48:06;24.00;79.20
44705;DHT22;30431;48.520;9.046;2023-07-24T15:50:33;23.80;80.30